Terminal Aerodrome Forecast
Issued by NWS Riverton, WY

Home | Current Version | Previous Version | Text Only | Print | Product List | Glossary On
Versions: 1 2 3 4 5 6 7 8 9 10 11 12 13 14
000
FTUS45 KRIW 032300
TAFRIW
TAF
KRIW 032324Z 0400/0424 VRB06KT P6SM VCSH SCT080 BKN150
     FM040300 VRB10KT P6SM VCSH BKN080
     FM040800 VRB05KT P6SM SCT080 BKN150
     FM041100 VRB05KT P6SM VCFG FEW015
     FM041500 VRB05KT P6SM SCT250=

USA.gov is the U.S. government's official web portal to all federal, state and local government web resources and services.